Time;durP1;ratioP1;P1;durP2;ratioP2;P2;SDS_P1;SDS_P2;PMS_P1;PMS_P2;Temp;Humidity;BMP_temperature;BMP_pressure;BME280_temperature;BME280_humidity;BME280_pressure;Samples;Min_cycle;Max_cycle;Signal;HPM_P1;HPM_P2
2022/10/29 00:00:25;;;;;;;39.75;16.35;;;;;;;12.00;100.00;99747.63;5059462;28;20044;-96
2022/10/29 00:02:51;;;;;;;32.45;15.63;;;;;;;12.07;100.00;99762.63;5059241;28;20067;-95
2022/10/29 00:05:18;;;;;;;33.53;13.90;;;;;;;11.97;100.00;99750.38;5060407;28;20045;-94
2022/10/29 00:07:44;;;;;;;32.72;14.25;;;;;;;11.85;100.00;99738.06;5060480;28;20052;-95
2022/10/29 00:10:10;;;;;;;26.58;13.48;;;;;;;11.98;100.00;99770.78;5059144;28;20037;-95
2022/10/29 00:12:36;;;;;;;30.13;13.80;;;;;;;11.82;100.00;99735.47;5060418;28;20405;-95
2022/10/29 00:15:02;;;;;;;31.70;14.82;;;;;;;11.94;100.00;99771.72;5059938;28;20626;-95
2022/10/29 00:17:28;;;;;;;36.55;15.82;;;;;;;11.82;100.00;99767.47;5060419;28;20067;-95
2022/10/29 00:19:54;;;;;;;31.38;14.85;;;;;;;11.65;100.00;99754.41;5059793;28;20041;-94
2022/10/29 00:22:21;;;;;;;34.55;15.52;;;;;;;11.85;100.00;99775.38;5058729;28;20049;-93
2022/10/29 00:24:47;;;;;;;38.40;16.20;;;;;;;11.78;100.00;99759.53;5059304;28;20048;-95
2022/10/29 00:27:13;;;;;;;39.35;16.88;;;;;;;12.24;100.00;99772.13;5059668;28;20117;-94
2022/10/29 00:29:39;;;;;;;42.05;17.77;;;;;;;12.47;100.00;99764.56;5055322;28;20045;-95
2022/10/29 00:32:05;;;;;;;39.28;17.80;;;;;;;12.57;100.00;99751.94;5070009;28;20045;-95
2022/10/29 00:34:31;;;;;;;34.13;15.43;;;;;;;12.62;100.00;99771.41;5058800;28;20438;-93
2022/10/29 00:36:56;;;;;;;31.23;13.60;;;;;;;12.34;100.00;99749.72;5058115;28;20040;-95
2022/10/29 00:39:24;;;;;;;31.27;13.85;;;;;;;12.24;100.00;99753.44;5058662;28;20131;-94
2022/10/29 00:41:51;;;;;;;31.63;14.63;;;;;;;12.09;100.00;99759.94;5058165;28;20052;-94
2022/10/29 00:44:29;;;;;;;31.17;13.88;;;;;;;12.04;100.00;99777.81;5056831;28;20075;-95
2022/10/29 00:47:01;;;;;;;33.65;15.13;;;;;;;11.81;100.00;99768.34;5058107;28;20139;-95
2022/10/29 00:49:27;;;;;;;35.15;15.60;;;;;;;11.90;100.00;99757.56;5058544;28;20049;-95
2022/10/29 00:51:54;;;;;;;41.60;16.23;;;;;;;12.16;100.00;99760.69;5058763;28;20045;-96
2022/10/29 00:54:20;;;;;;;39.30;16.88;;;;;;;12.33;100.00;99763.94;5058213;28;20167;-95
2022/10/29 00:56:51;;;;;;;35.70;14.60;;;;;;;12.27;100.00;99764.94;5057376;28;20041;-95
2022/10/29 00:59:17;;;;;;;37.97;15.95;;;;;;;12.06;100.00;99755.53;5056893;28;20130;-94
2022/10/29 01:01:44;;;;;;;41.40;17.90;;;;;;;11.87;100.00;99740.72;5056361;28;20137;-95
2022/10/29 01:04:11;;;;;;;37.13;15.80;;;;;;;11.78;100.00;99743.56;5056585;28;20032;-94
2022/10/29 01:06:38;;;;;;;39.42;16.95;;;;;;;11.66;100.00;99750.81;5056306;28;20044;-95
2022/10/29 01:09:04;;;;;;;37.90;15.52;;;;;;;11.58;100.00;99755.41;5056743;28;20076;-95
2022/10/29 01:11:42;;;;;;;36.78;16.05;;;;;;;11.50;100.00;99755.50;5059097;28;20040;-94
2022/10/29 01:14:21;;;;;;;35.53;15.63;;;;;;;11.44;100.00;99754.72;5057727;28;20037;-96
2022/10/29 01:16:59;;;;;;;34.10;14.97;;;;;;;11.27;100.00;99738.97;5056893;28;20049;-94
2022/10/29 01:19:51;;;;;;;37.75;15.88;;;;;;;11.20;100.00;99740.84;5057570;28;20093;-95
2022/10/29 01:22:26;;;;;;;35.67;15.38;;;;;;;11.16;100.00;99749.78;5058649;28;20049;-94
2022/10/29 01:25:14;;;;;;;45.75;18.80;;;;;;;11.48;100.00;99745.78;5067499;28;20497;-94
2022/10/29 01:28:04;;;;;;;42.63;17.73;;;;;;;11.66;100.00;99736.63;5075495;28;20049;-95
2022/10/29 01:30:59;;;;;;;40.00;17.02;;;;;;;11.81;100.00;99749.69;5077198;28;20044;-96
2022/10/29 01:33:35;;;;;;;37.05;16.55;;;;;;;11.77;100.00;99736.44;5076952;28;20090;-95
2022/10/29 01:36:06;;;;;;;40.90;17.50;;;;;;;11.66;100.00;99734.81;5076256;28;20098;-95
2022/10/29 01:38:39;;;;;;;36.35;16.38;;;;;;;11.54;100.00;99732.38;5075851;28;20052;-94
2022/10/29 01:41:11;;;;;;;39.72;16.75;;;;;;;11.46;100.00;99732.47;5075381;28;20070;-94
2022/10/29 01:43:43;;;;;;;42.92;17.58;;;;;;;11.63;100.00;99748.22;5070087;28;20041;-93
2022/10/29 01:46:15;;;;;;;41.92;19.50;;;;;;;11.64;100.00;99735.75;5058626;28;20064;-95
2022/10/29 01:48:44;;;;;;;40.72;17.48;;;;;;;11.82;100.00;99748.81;5057231;28;20055;-96
2022/10/29 01:51:17;;;;;;;38.33;18.27;;;;;;;11.98;100.00;99746.78;5057629;28;20044;-95
2022/10/29 01:53:45;;;;;;;38.20;16.92;;;;;;;11.79;100.00;99718.66;5067760;28;20053;-94
2022/10/29 01:56:11;;;;;;;40.92;18.05;;;;;;;11.81;100.00;99723.03;5075384;28;20045;-94
2022/10/29 01:58:40;;;;;;;47.45;18.88;;;;;;;11.84;100.00;99732.75;5063160;28;20075;-93
2022/10/29 02:01:20;;;;;;;40.25;17.95;;;;;;;11.87;100.00;99722.94;5077036;28;20128;-95
2022/10/29 02:03:55;;;;;;;54.65;18.95;;;;;;;11.79;100.00;99708.84;5076863;28;20072;-94
2022/10/29 02:06:32;;;;;;;35.45;17.42;;;;;;;11.80;100.00;99731.09;5078067;28;20045;-93
2022/10/29 02:09:07;;;;;;;38.03;17.77;;;;;;;11.60;100.00;99726.97;5060113;28;20037;-95
2022/10/29 02:11:43;;;;;;;46.75;19.25;;;;;;;11.37;100.00;99710.44;5059098;28;20095;-95
2022/10/29 02:14:16;;;;;;;41.55;18.67;;;;;;;11.23;100.00;99703.56;5058954;28;20041;-95
2022/10/29 02:16:44;;;;;;;44.60;19.30;;;;;;;11.17;100.00;99711.63;5056814;28;20098;-94
2022/10/29 02:19:10;;;;;;;40.90;17.75;;;;;;;11.21;100.00;99733.75;5055817;28;20045;-95
2022/10/29 02:21:35;;;;;;;38.58;18.27;;;;;;;10.99;100.00;99704.75;5059761;28;20096;-94
2022/10/29 02:24:01;;;;;;;45.22;19.85;;;;;;;11.00;100.00;99701.22;5060552;28;20041;-95
2022/10/29 02:26:27;;;;;;;50.88;21.00;;;;;;;11.13;100.00;99725.88;5058810;28;20426;-94
2022/10/29 02:28:53;;;;;;;46.58;20.35;;;;;;;11.08;100.00;99727.69;5060062;28;20067;-94
2022/10/29 02:31:19;;;;;;;44.60;19.80;;;;;;;10.88;100.00;99704.91;5059443;28;20048;-94
2022/10/29 02:33:46;;;;;;;46.20;19.25;;;;;;;11.05;100.00;99698.47;5060859;28;20048;-95
2022/10/29 02:36:12;;;;;;;46.42;20.60;;;;;;;11.14;100.00;99703.66;5060259;28;20084;-96
2022/10/29 02:38:38;;;;;;;51.90;20.40;;;;;;;11.07;100.00;99710.00;5078613;28;20045;-94
2022/10/29 02:41:04;;;;;;;47.70;20.95;;;;;;;11.03;100.00;99700.28;5075537;28;20105;-94
2022/10/29 02:43:30;;;;;;;44.55;19.75;;;;;;;11.04;100.00;99700.28;5080414;28;20047;-93
2022/10/29 02:46:13;;;;;;;51.25;20.05;;;;;;;11.03;100.00;99710.94;5080360;28;20051;-94
2022/10/29 02:48:39;;;;;;;48.15;19.33;;;;;;;10.88;100.00;99696.03;5064267;28;20052;-94
2022/10/29 02:51:06;;;;;;;49.85;21.80;;;;;;;10.92;100.00;99702.22;5063226;28;20052;-94
2022/10/29 02:53:32;;;;;;;42.85;18.63;;;;;;;10.83;100.00;99704.09;5059423;28;20098;-94
2022/10/29 02:55:58;;;;;;;41.85;18.20;;;;;;;10.71;100.00;99696.25;5080229;28;20048;-95
2022/10/29 02:58:25;;;;;;;44.70;18.02;;;;;;;10.83;100.00;99721.84;5083328;28;20429;-94
2022/10/29 03:00:51;;;;;;;39.15;17.52;;;;;;;10.60;100.00;99695.53;5065364;28;20033;-95
2022/10/29 03:03:17;;;;;;;45.35;18.00;;;;;;;10.58;100.00;99692.91;5070954;28;20040;-94
2022/10/29 03:05:43;;;;;;;39.42;17.42;;;;;;;10.52;100.00;99690.31;5066626;28;20048;-95
2022/10/29 03:08:11;;;;;;;39.25;17.55;;;;;;;10.60;100.00;99711.47;5058071;28;20529;-96
2022/10/29 03:10:37;;;;;;;42.53;17.90;;;;;;;10.53;100.00;99704.47;5058354;28;20133;-95
2022/10/29 03:13:02;;;;;;;38.42;17.45;;;;;;;10.33;100.00;99686.97;5059299;28;20083;-94
2022/10/29 03:15:28;;;;;;;39.80;18.25;;;;;;;10.33;100.00;99704.72;5059519;28;20055;-95
2022/10/29 03:17:54;;;;;;;36.42;15.85;;;;;;;10.37;100.00;99711.75;5058848;28;20049;-95
2022/10/29 03:20:23;;;;;;;38.08;16.08;;;;;;;10.19;100.00;99700.41;5058387;28;20048;-94
2022/10/29 03:22:49;;;;;;;33.40;17.15;;;;;;;10.24;100.00;99714.50;5057536;28;20045;-94
2022/10/29 03:25:16;;;;;;;41.63;16.25;;;;;;;10.05;100.00;99703.19;5057880;28;20063;-93
2022/10/29 03:27:44;;;;;;;35.08;14.80;;;;;;;10.03;100.00;99694.34;5058534;28;20136;-95
2022/10/29 03:30:11;;;;;;;39.60;16.80;;;;;;;9.97;100.00;99697.06;5058214;28;20076;-94
2022/10/29 03:32:39;;;;;;;36.03;16.27;;;;;;;9.93;100.00;99699.75;5058151;28;20588;-94
2022/10/29 03:35:06;;;;;;;31.88;15.80;;;;;;;9.87;100.00;99693.63;5057936;28;20051;-95
2022/10/29 03:37:32;;;;;;;36.38;16.10;;;;;;;9.85;100.00;99700.72;5058634;28;20056;-94
2022/10/29 03:39:58;;;;;;;35.83;15.20;;;;;;;9.88;100.00;99710.44;5057871;28;20049;-93
2022/10/29 03:42:25;;;;;;;35.40;14.55;;;;;;;9.95;100.00;99721.88;5057558;28;20045;-94
2022/10/29 03:44:51;;;;;;;29.15;13.57;;;;;;;9.96;100.00;99729.84;5057639;28;20372;-95
2022/10/29 03:47:17;;;;;;;29.83;12.82;;;;;;;9.89;100.00;99722.84;5057580;28;20047;-94
2022/10/29 03:49:43;;;;;;;29.70;12.90;;;;;;;9.77;100.00;99712.31;5057825;28;20072;-93
2022/10/29 03:52:09;;;;;;;31.30;13.98;;;;;;;9.76;100.00;99703.47;5057500;28;20384;-92
2022/10/29 03:54:35;;;;;;;32.55;14.45;;;;;;;9.75;100.00;99706.13;5057700;28;20475;-93
2022/10/29 03:57:00;;;;;;;29.52;13.52;;;;;;;9.73;100.00;99706.13;5057905;28;20122;-93
2022/10/29 03:59:28;;;;;;;32.88;14.02;;;;;;;9.80;100.00;99721.16;5057060;28;20044;-92
2022/10/29 04:01:53;;;;;;;41.97;15.30;;;;;;;9.80;100.00;99717.59;5057383;28;20099;-93
2022/10/29 04:04:19;;;;;;;39.42;15.15;;;;;;;9.80;100.00;99710.53;5057681;28;20441;-95
2022/10/29 04:06:45;;;;;;;35.45;15.43;;;;;;;9.85;100.00;99705.16;5057165;28;20056;-93
2022/10/29 04:09:11;;;;;;;39.45;16.02;;;;;;;10.03;100.00;99736.00;5057306;28;20040;-95
2022/10/29 04:11:37;;;;;;;36.95;16.05;;;;;;;10.03;100.00;99736.00;5056838;28;20049;-94
2022/10/29 04:14:03;;;;;;;41.25;16.20;;;;;;;9.92;100.00;99701.53;5056907;28;20141;-94
2022/10/29 04:16:30;;;;;;;39.38;15.57;;;;;;;10.02;100.00;99724.47;5056535;28;20041;-93
2022/10/29 04:18:56;;;;;;;38.47;15.60;;;;;;;10.03;100.00;99741.31;5056636;28;20091;-93
2022/10/29 04:21:22;;;;;;;38.95;16.38;;;;;;;9.80;100.00;99706.97;5057621;28;20060;-93
2022/10/29 04:23:48;;;;;;;38.38;16.52;;;;;;;9.86;100.00;99722.84;5058839;28;20041;-95
2022/10/29 04:26:15;;;;;;;33.40;15.57;;;;;;;9.78;100.00;99714.97;5057756;28;20064;-94
2022/10/29 04:28:41;;;;;;;33.08;14.27;;;;;;;9.82;100.00;99714.06;5056776;28;20055;-94
2022/10/29 04:31:10;;;;;;;35.55;15.15;;;;;;;9.84;100.00;99721.97;5057430;28;20045;-93
2022/10/29 04:33:38;;;;;;;32.63;14.95;;;;;;;9.87;100.00;99744.09;5057507;28;20100;-94
2022/10/29 04:36:04;;;;;;;36.60;16.03;;;;;;;9.91;100.00;99760.00;5059654;28;20049;-93
2022/10/29 04:38:34;;;;;;;35.42;16.05;;;;;;;9.70;100.00;99734.50;5060651;28;20049;-94
2022/10/29 04:41:00;;;;;;;39.10;16.20;;;;;;;9.91;100.00;99767.97;5059064;28;20132;-93
2022/10/29 04:43:27;;;;;;;32.50;15.20;;;;;;;9.78;100.00;99756.56;5055141;28;20048;-93
2022/10/29 04:45:54;;;;;;;34.42;15.77;;;;;;;9.75;100.00;99744.19;5057009;28;20573;-93
2022/10/29 04:48:20;;;;;;;36.88;15.30;;;;;;;9.58;100.00;99744.31;5055568;28;20052;-93
2022/10/29 04:50:48;;;;;;;38.15;15.98;;;;;;;9.73;100.00;99769.00;5055343;28;20056;-94
2022/10/29 04:53:14;;;;;;;40.58;15.98;;;;;;;9.55;100.00;99733.72;5055884;28;20045;-94
2022/10/29 04:55:40;;;;;;;32.75;15.40;;;;;;;9.58;100.00;99752.28;5055771;28;20391;-93
2022/10/29 04:58:10;;;;;;;36.17;16.13;;;;;;;9.70;100.00;99774.34;5055724;28;20086;-94
2022/10/29 05:00:36;;;;;;;39.55;16.70;;;;;;;9.47;100.00;99735.56;5055830;28;20052;-92
2022/10/29 05:03:02;;;;;;;40.72;16.50;;;;;;;9.72;100.00;99762.81;5055905;28;20045;-93
2022/10/29 05:05:28;;;;;;;38.13;16.30;;;;;;;9.55;100.00;99731.06;5061389;28;20048;-94
2022/10/29 05:08:00;;;;;;;35.70;17.02;;;;;;;9.71;100.00;99773.44;5064467;28;20056;-92
2022/10/29 05:10:26;;;;;;;34.78;15.05;;;;;;;9.65;100.00;99763.78;5064560;28;20044;-93
2022/10/29 05:12:56;;;;;;;33.53;16.67;;;;;;;9.77;100.00;99766.31;5065016;28;20737;-94
2022/10/29 05:15:22;;;;;;;35.92;16.55;;;;;;;9.79;100.00;99764.53;5062773;28;20037;-93
2022/10/29 05:17:47;;;;;;;32.50;15.48;;;;;;;9.79;100.00;99748.59;5070213;28;20048;-93
2022/10/29 05:20:13;;;;;;;37.30;16.30;;;;;;;9.93;100.00;99766.19;5066809;28;20077;-92
2022/10/29 05:22:39;;;;;;;38.17;16.95;;;;;;;10.04;100.00;99764.31;5062753;28;20043;-91
2022/10/29 05:25:07;;;;;;;34.95;17.00;;;;;;;9.86;100.00;99746.75;5064644;28;20063;-93
2022/10/29 05:27:32;;;;;;;34.28;16.35;;;;;;;9.89;100.00;99765.34;5061484;28;20140;-93
2022/10/29 05:29:58;;;;;;;34.10;16.40;;;;;;;9.87;100.00;99754.72;5065649;28;20064;-92
2022/10/29 05:32:27;;;;;;;40.78;18.00;;;;;;;9.76;100.00;99747.72;5061528;28;20453;-93
2022/10/29 05:34:53;;;;;;;38.05;16.35;;;;;;;9.72;100.00;99753.97;5066883;28;20098;-93
2022/10/29 05:37:19;;;;;;;45.83;18.92;;;;;;;9.61;100.00;99773.53;5067561;28;20040;-93
2022/10/29 05:39:44;;;;;;;39.70;17.60;;;;;;;9.50;100.00;99774.47;5062250;28;20048;-92
2022/10/29 05:42:12;;;;;;;40.65;18.05;;;;;;;9.27;100.00;99759.59;5074952;28;20036;-91
2022/10/29 05:44:38;;;;;;;63.08;19.52;;;;;;;9.10;100.00;99740.22;5069846;28;20036;-91
2022/10/29 05:47:05;;;;;;;46.03;19.15;;;;;;;9.23;100.00;99769.31;5073358;28;20037;-92
2022/10/29 05:49:31;;;;;;;45.53;20.08;;;;;;;9.21;100.00;99757.84;5062361;28;20456;-91
2022/10/29 05:51:57;;;;;;;42.63;18.65;;;;;;;9.19;100.00;99746.34;5064999;28;20102;-93
2022/10/29 05:54:23;;;;;;;52.75;20.48;;;;;;;9.33;100.00;99762.19;5066664;28;20436;-94
2022/10/29 05:56:49;;;;;;;44.92;20.17;;;;;;;9.43;100.00;99769.22;5070205;28;20132;-94
2022/10/29 05:59:16;;;;;;;48.33;19.80;;;;;;;9.57;100.00;99778.88;5068138;28;20116;-94
2022/10/29 06:01:43;;;;;;;46.10;19.42;;;;;;;9.52;100.00;99749.69;5069431;28;20074;-92
2022/10/29 06:04:09;;;;;;;45.60;17.35;;;;;;;9.60;100.00;99739.88;5071127;28;20067;-92
2022/10/29 06:06:35;;;;;;;49.63;19.80;;;;;;;9.62;100.00;99754.03;5071037;28;20041;-90
2022/10/29 06:09:01;;;;;;;47.03;18.80;;;;;;;9.63;100.00;99754.94;5087906;28;20105;-93
2022/10/29 06:11:27;;;;;;;55.60;19.15;;;;;;;9.50;100.00;99745.25;5078576;28;20094;-95
2022/10/29 06:13:54;;;;;;;37.58;17.88;;;;;;;9.44;100.00;99752.38;5064704;28;20428;-95
2022/10/29 06:16:22;;;;;;;40.20;18.88;;;;;;;9.40;100.00;99755.94;5067564;28;20049;-94
2022/10/29 06:18:47;;;;;;;43.28;20.48;;;;;;;9.49;100.00;99765.63;5063805;28;20490;-93
2022/10/29 06:21:13;;;;;;;43.42;18.58;;;;;;;9.39;100.00;99748.91;5081542;28;20067;-94
2022/10/29 06:23:39;;;;;;;43.45;19.08;;;;;;;9.35;100.00;99740.97;5080898;28;20037;-93
2022/10/29 06:26:05;;;;;;;46.75;19.38;;;;;;;9.44;100.00;99748.88;5075355;28;20045;-93
2022/10/29 06:28:31;;;;;;;45.20;18.85;;;;;;;9.59;100.00;99783.28;5073229;28;20090;-93
2022/10/29 06:30:57;;;;;;;40.60;18.33;;;;;;;9.48;100.00;99747.03;5081697;28;20485;-95
2022/10/29 06:33:25;;;;;;;41.22;17.23;;;;;;;9.43;100.00;99745.34;5079063;28;20040;-94
2022/10/29 06:35:51;;;;;;;45.58;17.88;;;;;;;9.47;100.00;99756.78;5082654;28;20056;-92
2022/10/29 06:38:17;;;;;;;36.28;16.23;;;;;;;9.57;100.00;99753.19;5066055;28;20041;-92
2022/10/29 06:40:52;;;;;;;34.95;16.90;;;;;;;9.63;100.00;99753.16;5072985;28;20079;-93
2022/10/29 06:43:18;;;;;;;33.80;16.05;;;;;;;9.64;100.00;99760.22;5065988;28;20048;-92
2022/10/29 06:45:44;;;;;;;35.90;17.00;;;;;;;9.73;100.00;99761.03;5067146;28;20426;-94
2022/10/29 06:48:10;;;;;;;32.15;16.23;;;;;;;9.84;100.00;99764.47;5066444;28;20045;-95
2022/10/29 06:50:38;;;;;;;35.72;16.23;;;;;;;10.06;100.00;99782.03;5067462;28;20041;-91
2022/10/29 06:53:05;;;;;;;33.47;16.13;;;;;;;9.98;100.00;99751.09;5067069;28;20053;-94
2022/10/29 06:55:32;;;;;;;30.63;15.75;;;;;;;10.14;100.00;99754.50;5067842;28;20033;-95
2022/10/29 06:58:00;;;;;;;34.85;16.70;;;;;;;10.28;100.00;99748.16;5067402;28;20064;-92
2022/10/29 07:00:27;;;;;;;30.58;15.10;;;;;;;10.47;100.00;99766.59;5067816;28;20036;-93
2022/10/29 07:02:53;;;;;;;33.47;15.75;;;;;;;10.49;100.00;99756.81;5067825;28;20128;-92
2022/10/29 07:05:20;;;;;;;34.65;15.77;;;;;;;10.68;100.00;99773.44;5067192;28;20041;-93
2022/10/29 07:07:47;;;;;;;28.13;15.52;;;;;;;10.68;100.00;99762.81;5068119;28;20402;-93
2022/10/29 07:10:14;;;;;;;29.33;14.73;;;;;;;10.75;100.00;99756.50;5067989;28;20550;-95
2022/10/29 07:12:40;;;;;;;29.80;14.65;;;;;;;11.04;100.00;99787.22;5066349;28;20435;-95
2022/10/29 07:15:07;;;;;;;29.55;15.10;;;;;;;11.01;100.00;99774.81;5067440;28;20041;-94
2022/10/29 07:17:33;;;;;;;31.17;15.25;;;;;;;11.22;100.00;99791.44;5069247;28;20053;-95
2022/10/29 07:19:59;;;;;;;28.45;13.75;;;;;;;11.16;100.00;99768.41;5076764;28;20041;-92
2022/10/29 07:22:25;;;;;;;27.25;14.90;;;;;;;11.26;100.00;99772.72;5085276;28;20061;-92
2022/10/29 07:24:53;;;;;;;31.83;14.82;;;;;;;11.48;100.00;99783.06;5067018;28;20041;-93
2022/10/29 07:27:49;;;;;;;31.35;14.23;;;;;;;11.60;100.00;99782.00;5067400;28;20049;-93
2022/10/29 07:30:16;;;;;;;27.85;13.77;;;;;;;11.79;100.00;99791.47;5062690;28;20051;-95
2022/10/29 07:32:45;;;;;;;26.55;13.15;;;;;;;11.83;100.00;99774.53;5078295;28;20052;-93
2022/10/29 07:35:45;;;;;;;28.05;13.70;;;;;;;12.02;100.00;99779.59;5078957;28;20044;-93
2022/10/29 07:38:11;;;;;;;26.98;13.95;;;;;;;12.17;100.00;99798.00;4998595;28;20114;-95
2022/10/29 07:40:45;;;;;;;25.05;12.45;;;;;;;12.29;100.00;99812.91;4999134;28;20046;-93
2022/10/29 07:43:11;;;;;;;36.00;14.35;;;;;;;12.31;100.00;99792.44;4994616;28;20046;-92
2022/10/29 07:45:37;;;;;;;29.33;14.65;;;;;;;12.33;100.00;99782.59;4993742;28;20046;-94
2022/10/29 07:48:06;;;;;;;30.15;12.82;;;;;;;12.48;100.00;99774.31;4984030;28;20404;-94
2022/10/29 07:50:33;;;;;;;24.88;13.32;;;;;;;12.67;99.30;99790.88;4996762;28;20133;-93
2022/10/29 07:52:59;;;;;;;24.88;12.75;;;;;;;12.78;98.64;99782.66;4999760;28;20078;-92
2022/10/29 07:55:25;;;;;;;25.63;13.27;;;;;;;12.82;95.76;99773.69;5006187;28;20047;-93
2022/10/29 07:57:57;;;;;;;22.63;11.98;;;;;;;12.98;95.65;99795.59;5006749;28;20150;-92
2022/10/29 08:00:24;;;;;;;21.73;12.90;;;;;;;12.91;96.07;99778.81;5004847;28;20054;-93
2022/10/29 08:02:51;;;;;;;24.40;13.27;;;;;;;13.02;95.46;99775.94;5005725;28;20050;-93
2022/10/29 08:05:17;;;;;;;23.70;12.27;;;;;;;13.25;95.74;99788.81;5005369;28;20572;-93
2022/10/29 08:07:43;;;;;;;20.65;11.73;;;;;;;13.37;94.76;99777.00;5003563;28;20193;-93
2022/10/29 08:10:09;;;;;;;21.70;11.73;;;;;;;13.52;92.46;99770.44;4992615;28;20054;-94
2022/10/29 08:12:35;;;;;;;20.95;11.50;;;;;;;13.73;92.07;99774.41;4988676;28;20050;-92
2022/10/29 08:15:04;;;;;;;20.10;10.70;;;;;;;13.92;90.84;99777.47;5069523;28;20060;-93
2022/10/29 08:17:30;;;;;;;21.95;11.13;;;;;;;13.98;89.71;99775.53;5068015;28;20037;-93
2022/10/29 08:19:56;;;;;;;23.02;11.18;;;;;;;13.95;88.86;99764.94;5061351;28;20560;-94
2022/10/29 08:22:23;;;;;;;21.73;12.48;;;;;;;13.82;89.81;99782.19;5064304;28;20048;-94
2022/10/29 08:24:49;;;;;;;21.63;11.75;;;;;;;13.64;91.01;99763.91;5066220;28;20041;-94
2022/10/29 08:27:14;;;;;;;21.38;11.13;;;;;;;13.88;90.59;99760.66;5065756;28;20526;-93
2022/10/29 08:29:40;;;;;;;21.65;11.27;;;;;;;14.12;90.74;99769.00;5063023;28;20113;-93
2022/10/29 08:32:08;;;;;;;20.23;10.50;;;;;;;14.22;89.46;99766.94;5075418;28;20048;-93
2022/10/29 08:34:34;;;;;;;16.13;8.20;;;;;;;14.41;84.19;99749.47;5070823;28;20048;-93
2022/10/29 08:37:00;;;;;;;18.15;8.70;;;;;;;14.73;82.25;99751.31;5065763;28;20052;-94
2022/10/29 08:39:26;;;;;;;16.65;8.52;;;;;;;14.92;82.40;99740.03;5082423;28;20063;-93
2022/10/29 08:42:04;;;;;;;15.75;8.48;;;;;;;15.35;81.66;99763.78;5081134;28;20068;-93
2022/10/29 08:45:04;;;;;;;14.48;7.47;;;;;;;15.57;77.66;99755.03;5074901;28;20037;-92
2022/10/29 08:47:44;;;;;;;11.80;7.32;;;;;;;15.52;75.31;99749.81;5059280;28;20151;-93
2022/10/29 08:50:18;;;;;;;15.05;6.85;;;;;;;15.54;73.81;99755.16;5063535;28;20037;-91
2022/10/29 08:52:46;;;;;;;14.93;7.47;;;;;;;15.57;74.90;99755.03;5060910;28;20091;-91
2022/10/29 08:55:15;;;;;;;14.18;8.50;;;;;;;15.56;75.44;99754.16;5063179;28;20044;-93
2022/10/29 08:57:46;;;;;;;17.58;8.40;;;;;;;15.60;75.60;99741.56;5066631;28;20421;-93
2022/10/29 09:00:16;;;;;;;14.48;7.75;;;;;;;15.49;75.04;99743.72;5059797;28;20033;-91
2022/10/29 09:02:44;;;;;;;15.00;8.02;;;;;;;15.73;76.13;99752.78;5066616;28;20067;-94
2022/10/29 09:05:15;;;;;;;17.13;8.35;;;;;;;15.84;76.31;99747.94;5072358;28;20032;-93
2022/10/29 09:08:04;;;;;;;12.70;7.45;;;;;;;16.05;76.15;99761.56;5064129;28;20437;-93
2022/10/29 09:10:38;;;;;;;12.88;7.50;;;;;;;16.16;72.01;99730.78;5062933;28;20040;-92
2022/10/29 09:13:37;;;;;;;13.20;6.85;;;;;;;16.48;71.50;99754.72;5065914;28;20102;-93
2022/10/29 09:16:20;;;;;;;16.05;7.50;;;;;;;16.40;71.85;99734.41;5019756;28;20156;-94
2022/10/29 09:19:04;;;;;;;13.30;6.40;;;;;;;16.22;70.74;99725.19;5021560;28;20053;-91
2022/10/29 09:21:35;;;;;;;17.05;7.93;;;;;;;16.38;71.21;99751.50;5016438;28;20049;-91
2022/10/29 09:24:10;;;;;;;14.50;7.07;;;;;;;16.58;70.96;99748.97;5022827;28;20601;-94
2022/10/29 09:26:48;;;;;;;14.65;6.95;;;;;;;16.64;69.53;99746.06;5019933;28;20050;-93
2022/10/29 09:29:55;;;;;;;13.40;6.60;;;;;;;16.61;71.16;99738.13;5026595;28;20092;-94
2022/10/29 09:32:26;;;;;;;15.27;7.03;;;;;;;16.33;68.04;99723.91;5018298;28;20049;-92
2022/10/29 09:34:57;;;;;;;12.55;6.90;;;;;;;16.49;70.03;99716.22;5024374;28;20037;-95
2022/10/29 09:37:32;;;;;;;16.73;7.43;;;;;;;16.65;70.18;99714.72;5027006;28;20069;-93
2022/10/29 09:40:03;;;;;;;14.57;6.97;;;;;;;16.87;69.36;99720.19;5024640;28;20045;-94
2022/10/29 09:42:34;;;;;;;12.70;7.00;;;;;;;17.02;69.67;99743.81;5022589;28;20561;-93
2022/10/29 09:45:03;;;;;;;12.95;6.65;;;;;;;16.87;70.33;99722.00;5026941;28;20049;-94
2022/10/29 09:47:37;;;;;;;13.30;7.05;;;;;;;16.99;71.01;99716.19;5025560;28;20064;-94
2022/10/29 09:50:17;;;;;;;13.52;7.15;;;;;;;17.14;71.04;99725.47;5024039;28;20053;-93
2022/10/29 09:52:46;;;;;;;15.93;6.80;;;;;;;17.38;69.62;99712.88;5067754;28;20108;-92
2022/10/29 09:55:18;;;;;;;;;;;;;;;17.47;71.32;99742.06;5068064;28;20041;-94
2022/10/29 09:57:45;;;;;;;15.60;6.60;;;;;;;17.37;70.71;99712.00;5069280;28;19925;-96
2022/10/29 10:00:18;;;;;;;14.05;7.47;;;;;;;17.53;70.32;99704.19;5082382;28;20044;-95
2022/10/29 10:02:47;;;;;;;16.05;7.28;;;;;;;17.80;70.39;99712.03;5079782;28;20041;-94
2022/10/29 10:05:22;;;;;;;12.55;6.60;;;;;;;17.93;69.74;99699.84;5079446;28;20060;-93
2022/10/29 10:08:05;;;;;;;12.05;7.03;;;;;;;18.09;69.71;99697.41;5074936;28;20179;-94
2022/10/29 10:10:33;;;;;;;14.98;7.55;;;;;;;18.32;69.22;99711.66;5068444;28;20114;-94
2022/10/29 10:13:02;;;;;;;15.45;6.30;;;;;;;18.23;67.79;99699.50;5068992;28;20049;-92
2022/10/29 10:15:31;;;;;;;13.18;7.50;;;;;;;18.32;68.75;99700.91;5070907;28;20191;-92
2022/10/29 10:18:00;;;;;;;16.63;7.65;;;;;;;18.29;67.75;99690.28;5071738;28;20041;-95
2022/10/29 10:20:40;;;;;;;14.55;7.45;;;;;;;18.27;68.32;99711.88;5075923;28;20075;-94
2022/10/29 10:23:39;;;;;;;14.25;8.10;;;;;;;18.36;67.25;99707.91;5065745;28;20045;-95
2022/10/29 10:26:33;;;;;;;14.25;7.32;;;;;;;18.32;67.76;99687.44;5033289;28;20056;-95
2022/10/29 10:29:10;;;;;;;13.70;6.32;;;;;;;18.34;68.09;99690.94;5045490;28;20045;-93
2022/10/29 10:31:37;;;;;;;15.73;7.63;;;;;;;18.30;67.70;99682.09;5076951;28;20040;-93
2022/10/29 10:34:09;;;;;;;15.65;7.75;;;;;;;18.36;68.72;99683.66;5082891;28;20148;-94
2022/10/29 10:36:39;;;;;;;16.05;7.88;;;;;;;18.37;67.59;99675.53;5065561;28;20049;-94
2022/10/29 10:39:20;;;;;;;17.67;9.50;;;;;;;18.35;67.49;99671.16;5064512;28;20044;-94
2022/10/29 10:41:49;;;;;;;12.68;8.18;;;;;;;18.41;66.99;99678.94;5080231;28;20497;-94
2022/10/29 10:44:18;;;;;;;15.88;8.20;;;;;;;18.34;67.47;99653.25;5085955;28;20052;-95
2022/10/29 10:46:53;;;;;;;14.50;6.93;;;;;;;18.40;66.79;99655.66;5092612;28;20100;-95
2022/10/29 10:49:31;;;;;;;18.88;8.15;;;;;;;18.42;67.19;99660.03;5091905;28;20044;-94
2022/10/29 10:52:03;;;;;;;16.75;7.55;;;;;;;18.41;66.94;99643.94;5094636;28;20045;-95
2022/10/29 10:54:35;;;;;;;15.68;7.57;;;;;;;18.47;66.70;99649.91;5092958;28;20040;-95
2022/10/29 10:57:30;;;;;;;13.70;7.10;;;;;;;18.46;66.80;99640.09;5090065;28;20054;-96
2022/10/29 11:00:01;;;;;;;14.32;7.10;;;;;;;18.52;66.97;99638.97;5095581;28;20102;-94
2022/10/29 11:02:38;;;;;;;18.95;7.57;;;;;;;18.52;66.55;99638.97;5091806;28;20044;-96
2022/10/29 11:05:15;;;;;;;13.88;7.55;;;;;;;18.55;67.32;99635.25;5088001;28;20033;-95
2022/10/29 11:07:50;;;;;;;16.52;7.25;;;;;;;18.72;67.68;99647.94;5089157;28;20040;-95
2022/10/29 11:10:30;;;;;;;19.67;7.80;;;;;;;18.71;66.89;99630.00;5073834;28;20049;-95
2022/10/29 11:13:11;;;;;;;16.73;8.20;;;;;;;18.78;68.20;99634.19;5063937;28;20040;-95
2022/10/29 11:15:46;;;;;;;16.33;9.20;;;;;;;18.77;68.52;99622.50;5066909;28;20071;-93
2022/10/29 11:18:17;;;;;;;22.20;9.15;;;;;;;18.85;67.98;99631.16;5066926;28;20071;-96
2022/10/29 11:20:49;;;;;;;15.93;9.02;;;;;;;18.79;69.29;99603.63;5066655;28;20099;-96
2022/10/29 11:23:38;;;;;;;14.32;8.40;;;;;;;18.82;69.02;99615.13;5069097;28;20119;-95
2022/10/29 11:26:10;;;;;;;18.15;8.98;;;;;;;18.93;69.35;99622.69;5069170;28;20053;-95
2022/10/29 11:28:40;;;;;;;14.32;7.95;;;;;;;18.81;69.74;99602.59;5074436;28;20123;-96